Marseliborg — A8VR8 — position and weather

sailwx.info

Track history (hours):
 
Tides and Currents Weather Stations Pressure Air Temp Water Temp Dewpoint Dewpoint Depression Visibility Wind Speed Wind Dir Waves Ship Positions

Marseliborg

Last reported at 2016-May-25 12:18 UTC. Time now 2016-May-25 16:54 UTC.
Position N 51°30' E 002°12'.

Length 138 m; draft 6.4 m.

Type: Ship. MMSI: 636092036.

Date/timePositionNaut miles runAvg speedWind from/ knotsBaromVisibWave heightAir tempDewpointWater temp
2016-May-25 12:18N 51°30' E 002°12'1013.9
2016-May-25 11:33N 51°22' E 002°02'1312.9
2016-May-25 10:34N 51°13' E 001°48'1211.6
2016-May-25 09:34N 51°03' E 001°37'1211.6
2016-May-25 08:34N 50°53' E 001°28'5012.2
2016-May-25 04:28N 50°25' E 000°23'1213.1
2016-May-25 03:34N 50°22' E 000°05'12215.0
2016-May-24 19:26N 49°46' W 002°56'1415.3
2016-May-24 18:33N 49°39' W 003°14'1514.9
2016-May-24 17:32N 49°33' W 003°35'1414.3
2016-May-24 16:33N 49°26' W 003°54'5413.5
2016-May-24 12:33N 48°59' W 005°05'1312.6
2016-May-24 11:33N 48°53' W 005°22'61513.9
2016-May-22 15:13N 39°09' W 009°52'2414.2
2016-May-22 13:30N 38°45' W 009°51'1314.0
2016-May-22 12:33N 38°32' W 009°49'1413.7
2016-May-22 11:33N 38°18' W 009°45'24412.2
2016-May-21 15:31N 35°58' W 005°34'1313.4
2016-May-21 14:33N 36°02' W 005°19'21114.7
2016-May-21 00:09N 37°09' W 001°10'915.3
2016-May-20 23:33N 37°15' W 001°01'1515.1
2016-May-20 22:33N 37°25' W 000°47'1514.9
2016-May-20 21:33N 37°35' W 000°33'1515.2
2016-May-20 20:32N 37°48' W 000°22'1515.0
2016-May-20 19:33N 38°00' W 000°12'1715.2
2016-May-20 18:25N 38°15' W 000°00'1315.1
2016-May-20 17:33N 38°26' E 000°09'75 1.5
2016-May-18 15:26N 39°39' W 000°13'  
Track history (hours):
 
Tides and Currents Weather Stations Pressure Air Temp Water Temp Dewpoint Dewpoint Depression Visibility Wind Speed Wind Dir Waves Ship Positions

Marseliborg

Last reported at 2016-May-25 12:18 UTC. Time now 2016-May-25 16:54 UTC.
Position N 51°30' E 002°12'.

Length 138 m; draft 6.4 m.

Type: Ship. MMSI: 636092036.

Date/timePositionNaut miles runAvg speedWind from/ knotsBaromVisibWave heightAir tempDewpointWater temp
2016-May-25 12:18N 51°30' E 002°12'1013.9
2016-May-25 11:33N 51°22' E 002°02'1312.9
2016-May-25 10:34N 51°13' E 001°48'1211.6
2016-May-25 09:34N 51°03' E 001°37'1211.6
2016-May-25 08:34N 50°53' E 001°28'5012.2
2016-May-25 04:28N 50°25' E 000°23'1213.1
2016-May-25 03:34N 50°22' E 000°05'12215.0
2016-May-24 19:26N 49°46' W 002°56'1415.3
2016-May-24 18:33N 49°39' W 003°14'1514.9
2016-May-24 17:32N 49°33' W 003°35'1414.3
2016-May-24 16:33N 49°26' W 003°54'5413.5
2016-May-24 12:33N 48°59' W 005°05'1312.6
2016-May-24 11:33N 48°53' W 005°22'61513.9
2016-May-22 15:13N 39°09' W 009°52'2414.2
2016-May-22 13:30N 38°45' W 009°51'1314.0
2016-May-22 12:33N 38°32' W 009°49'1413.7
2016-May-22 11:33N 38°18' W 009°45'24412.2
2016-May-21 15:31N 35°58' W 005°34'1313.4
2016-May-21 14:33N 36°02' W 005°19'21114.7
2016-May-21 00:09N 37°09' W 001°10'915.3
2016-May-20 23:33N 37°15' W 001°01'1515.1
2016-May-20 22:33N 37°25' W 000°47'1514.9
2016-May-20 21:33N 37°35' W 000°33'1515.2
2016-May-20 20:32N 37°48' W 000°22'1515.0
2016-May-20 19:33N 38°00' W 000°12'1715.2
2016-May-20 18:25N 38°15' W 000°00'1315.1
2016-May-20 17:33N 38°26' E 000°09'75 1.5
2016-May-18 15:26N 39°39' W 000°13'  

Dump ship's entire track history